Sparland, Illinois
Current Conditions -  °F | °C
As of 4:35 AM on Sunday 21 Dec 2014 (Local Time) from KC75 Reporting Station
Overcast Overcast  
Wind Chill: 28°   Ceiling: 3400
Heat Index: 33°   Visibility: 7mi
Dew Point: 29°   Wind: 6mph
Humidity: 85%   Direction: 160°SSE
Pressure: 30.18"   Gusts: NA
Location:  41.03°N, 89.44°W
Report Text: KC75 211035Z AUTO 16005KT 7SM OVC034 01/M01 A3018 RMK AO2 T00071015
Loading
Personal Weather Stations






























Interactive Weather Map New forecast layout! Learn more

10-Day Weather Forecast

Advertisements
Track Severe Weather on mobile